Penn, Nebraska
Current Conditions -  °F | °C
As of 1:53 PM on Tuesday 27 Jan 2015 (Local Time) from KAIA Reporting Station
Clear Clear  
Wind Chill: 71°   Ceiling: Unl
Heat Index: 71°   Visibility: 10mi
Dew Point: 29°   Wind: 7mph
Humidity: 21%   Direction: 270°W
Pressure: 29.97"   Gusts: NA
Location:  41.7534°N, 102.325°W
Report Text: KAIA 272053Z AUTO 27006KT 10SM CLR 22/M02 A2997 RMK AO2 SLP136 T02171017 56025
Loading
Personal Weather Stations






























Interactive Weather Map New forecast layout! Learn more

10-Day Weather Forecast

Advertisements
Track Severe Weather on mobile